createdAt,value
2019-05-12T00:00:09.494Z,2.27
2019-05-12T00:02:39.734Z,2.67
2019-05-12T00:05:09.340Z,2.00
2019-05-12T00:07:38.304Z,2.30
2019-05-12T00:10:08.597Z,2.60
2019-05-12T00:12:38.536Z,2.17
2019-05-12T00:15:08.415Z,2.43
2019-05-12T00:17:38.698Z,2.60
2019-05-12T00:20:08.665Z,2.20
2019-05-12T00:22:44.516Z,2.20
2019-05-12T00:25:13.256Z,2.53
2019-05-12T00:27:41.775Z,2.50
2019-05-12T00:30:12.098Z,2.37
2019-05-12T00:32:54.312Z,2.53
2019-05-12T00:35:22.936Z,2.20
2019-05-12T00:37:51.382Z,2.63
2019-05-12T00:40:19.897Z,2.57
2019-05-12T00:42:48.563Z,2.43
2019-05-12T00:45:18.127Z,2.57
2019-05-12T00:47:48.072Z,2.77
2019-05-12T00:50:18.454Z,2.53
2019-05-12T00:52:48.873Z,2.70
2019-05-12T00:55:18.441Z,2.30
2019-05-12T00:57:48.481Z,2.40
2019-05-12T01:00:17.955Z,3.50
2019-05-12T01:02:48.596Z,2.80
2019-05-12T01:05:17.753Z,2.50
2019-05-12T01:07:48.173Z,2.53
2019-05-12T01:10:36.000Z,2.57
2019-05-12T01:13:04.515Z,2.60
2019-05-12T01:15:33.049Z,2.50
2019-05-12T01:18:01.722Z,2.50
2019-05-12T01:20:30.169Z,2.87
2019-05-12T01:22:58.624Z,2.63
2019-05-12T01:25:29.025Z,2.60
2019-05-12T01:27:58.927Z,2.97
2019-05-12T01:30:28.453Z,2.40
2019-05-12T01:32:58.081Z,2.47
2019-05-12T01:35:28.252Z,2.43
2019-05-12T01:37:58.841Z,2.80
2019-05-12T01:40:28.878Z,2.80
2019-05-12T01:42:58.455Z,3.07
2019-05-12T01:45:28.859Z,2.63
2019-05-12T01:47:59.028Z,2.73
2019-05-12T01:50:28.523Z,2.83
2019-05-12T01:52:58.751Z,2.73
2019-05-12T01:55:28.064Z,2.63
2019-05-12T01:57:57.731Z,3.00
2019-05-12T02:00:28.279Z,2.83
2019-05-12T02:02:58.563Z,2.70
2019-05-12T02:05:28.114Z,3.23
2019-05-12T02:07:58.815Z,2.80
2019-05-12T02:10:28.822Z,3.20
2019-05-12T02:12:59.489Z,3.10
2019-05-12T02:15:28.098Z,3.30
2019-05-12T02:17:59.007Z,3.20
2019-05-12T02:20:28.830Z,3.23
2019-05-12T02:22:58.493Z,2.73
2019-05-12T02:25:28.823Z,2.87
2019-05-12T02:27:58.413Z,3.10
2019-05-12T02:30:30.224Z,3.20
2019-05-12T02:32:59.373Z,2.97
2019-05-12T02:35:28.131Z,3.10
2019-05-12T02:37:56.763Z,3.20
2019-05-12T02:40:26.449Z,3.00
2019-05-12T02:42:55.345Z,3.37
2019-05-12T02:45:25.305Z,3.07
2019-05-12T02:48:14.614Z,3.00
2019-05-12T02:51:05.515Z,3.07
2019-05-12T02:53:35.091Z,3.27
2019-05-12T02:56:05.151Z,3.30
2019-05-12T02:58:34.921Z,3.37
2019-05-12T03:01:05.492Z,3.03
2019-05-12T03:03:35.755Z,3.87
2019-05-12T03:06:05.486Z,3.10
2019-05-12T03:08:55.216Z,3.00
2019-05-12T03:11:25.622Z,3.53
2019-05-12T03:13:54.869Z,3.40
2019-05-12T03:16:25.695Z,3.07
2019-05-12T03:18:55.316Z,3.27
2019-05-12T03:21:24.638Z,3.30
2019-05-12T03:23:55.072Z,3.10
2019-05-12T03:26:24.648Z,3.87
2019-05-12T03:28:55.553Z,3.63
2019-05-12T03:31:31.112Z,3.27
2019-05-12T03:33:59.542Z,3.73
2019-05-12T03:36:32.238Z,3.30
2019-05-12T03:38:55.242Z,3.43
2019-05-12T03:41:25.036Z,3.50
2019-05-12T03:43:54.958Z,3.70
2019-05-12T03:46:24.903Z,3.17
2019-05-12T03:48:55.323Z,2.90
2019-05-12T03:51:25.117Z,3.80
2019-05-12T03:53:55.549Z,3.07
2019-05-12T03:56:25.959Z,3.63
2019-05-12T03:58:54.990Z,4.07
2019-05-12T04:01:25.521Z,3.20
2019-05-12T04:03:54.395Z,3.27
2019-05-12T04:06:24.596Z,2.77
2019-05-12T04:08:54.995Z,2.90
2019-05-12T04:11:24.959Z,3.87
2019-05-12T04:13:55.018Z,3.43
2019-05-12T04:16:24.837Z,3.37
2019-05-12T04:18:55.202Z,3.60
2019-05-12T04:21:24.477Z,3.83
2019-05-12T04:23:54.812Z,3.47
2019-05-12T04:26:25.281Z,3.63
2019-05-12T04:28:54.831Z,3.47
2019-05-12T04:31:24.888Z,3.27
2019-05-12T04:34:06.534Z,2.87
2019-05-12T04:36:35.696Z,3.20
2019-05-12T04:39:06.653Z,3.73
2019-05-12T04:41:35.652Z,3.10
2019-05-12T04:44:05.804Z,3.00
2019-05-12T04:46:34.726Z,3.53
2019-05-12T04:49:05.212Z,3.07
2019-05-12T04:51:34.945Z,3.53
2019-05-12T04:54:05.728Z,3.20
2019-05-12T04:56:35.787Z,3.20
2019-05-12T04:59:05.143Z,3.10
2019-05-12T05:01:34.896Z,2.93
2019-05-12T05:04:05.387Z,3.83
2019-05-12T05:06:34.442Z,3.40
2019-05-12T05:09:05.184Z,3.70
2019-05-12T05:11:34.548Z,3.37
2019-05-12T05:14:04.148Z,3.80
2019-05-12T05:16:34.613Z,3.47
2019-05-12T05:19:03.819Z,3.30
2019-05-12T05:21:34.519Z,3.47
2019-05-12T05:24:03.765Z,3.30
2019-05-12T05:26:36.584Z,3.40
2019-05-12T05:29:04.339Z,4.23
2019-05-12T05:31:33.697Z,2.90
2019-05-12T05:34:04.765Z,3.13
2019-05-12T05:36:34.569Z,3.13
2019-05-12T05:39:06.154Z,3.33
2019-05-12T05:41:34.711Z,3.40
2019-05-12T05:44:03.383Z,3.07
2019-05-12T05:46:33.600Z,2.83
2019-05-12T05:49:04.061Z,3.00
2019-05-12T05:51:33.502Z,3.20
2019-05-12T05:54:03.942Z,3.47
2019-05-12T05:56:42.366Z,2.67
2019-05-12T05:59:04.516Z,3.50
2019-05-12T06:01:34.735Z,2.87
2019-05-12T06:04:04.498Z,3.47
2019-05-12T06:06:34.150Z,2.90
2019-05-12T06:09:04.516Z,2.93
2019-05-12T06:11:34.492Z,3.27
2019-05-12T06:14:11.269Z,2.83
2019-05-12T06:16:34.176Z,2.97
2019-05-12T06:19:03.486Z,3.23
2019-05-12T06:21:34.735Z,3.67
2019-05-12T06:24:03.510Z,2.60
2019-05-12T06:26:35.447Z,3.00
2019-05-12T06:29:04.485Z,3.03
2019-05-12T06:31:33.544Z,2.60
2019-05-12T06:34:06.320Z,2.83
2019-05-12T06:36:34.015Z,3.00
2019-05-12T06:39:04.518Z,2.80
2019-05-12T06:41:33.626Z,2.67
2019-05-12T06:44:03.695Z,2.63
2019-05-12T06:46:34.245Z,2.60
2019-05-12T06:49:10.145Z,2.87
2019-05-12T06:51:33.998Z,2.80
2019-05-12T06:54:10.000Z,3.23
2019-05-12T06:56:34.232Z,2.27
2019-05-12T06:59:09.775Z,2.50
2019-05-12T07:01:33.626Z,2.43
2019-05-12T07:04:06.648Z,2.60
2019-05-12T07:06:33.945Z,2.97
2019-05-12T07:09:09.228Z,2.10
2019-05-12T07:11:42.543Z,2.30
2019-05-12T07:14:07.806Z,2.30
2019-05-12T07:16:34.134Z,2.60
2019-05-12T07:19:07.619Z,2.10
2019-05-12T07:21:33.622Z,1.87
2019-05-12T07:24:09.115Z,2.03
2019-05-12T07:26:33.885Z,2.50
2019-05-12T07:29:23.881Z,2.53
2019-05-12T07:31:53.655Z,2.10
2019-05-12T07:34:24.037Z,2.23
2019-05-12T07:36:55.629Z,2.50
2019-05-12T07:39:24.942Z,2.20
2019-05-12T07:41:54.940Z,2.17
2019-05-12T07:44:31.478Z,2.07
2019-05-12T07:46:56.547Z,1.70
2019-05-12T07:49:34.493Z,1.83
2019-05-12T07:51:55.380Z,2.30
2019-05-12T07:54:23.857Z,1.80
2019-05-12T07:56:53.995Z,1.97
2019-05-12T07:59:26.614Z,2.30
2019-05-12T08:01:54.941Z,2.23
2019-05-12T08:04:23.905Z,1.70
2019-05-12T08:06:53.793Z,2.13
2019-05-12T08:09:24.035Z,1.90
2019-05-12T08:11:54.098Z,1.70
2019-05-12T08:14:29.036Z,2.00
2019-05-12T08:16:54.312Z,2.30
2019-05-12T08:19:25.721Z,2.00
2019-05-12T08:21:53.737Z,1.80
2019-05-12T08:24:23.721Z,1.93
2019-05-12T08:26:59.540Z,2.03
2019-05-12T08:29:24.350Z,1.90
2019-05-12T08:31:54.813Z,2.33
2019-05-12T08:34:23.848Z,2.10
2019-05-12T08:36:57.813Z,1.90
2019-05-12T08:39:25.789Z,1.93
2019-05-12T08:41:53.538Z,1.90
2019-05-12T08:44:24.902Z,2.33
2019-05-12T08:46:56.431Z,2.17
2019-05-12T08:49:23.475Z,2.23
2019-05-12T08:51:57.773Z,2.10
2019-05-12T08:54:23.317Z,2.27
2019-05-12T08:56:59.199Z,2.30
2019-05-12T08:59:26.676Z,2.10
2019-05-12T09:01:54.128Z,2.40
2019-05-12T09:04:24.729Z,2.03
2019-05-12T09:06:56.634Z,2.00
2019-05-12T09:09:23.740Z,2.00
2019-05-12T09:11:54.137Z,2.27
2019-05-12T09:14:23.923Z,2.20
2019-05-12T09:16:53.733Z,1.80
2019-05-12T09:19:24.854Z,1.97
2019-05-12T09:21:54.215Z,2.00
2019-05-12T09:24:26.936Z,1.87
2019-05-12T09:26:53.832Z,2.20
2019-05-12T09:29:22.587Z,1.83
2019-05-12T09:31:53.115Z,1.80
2019-05-12T09:34:23.391Z,1.87
2019-05-12T09:36:59.361Z,2.03
2019-05-12T09:39:23.454Z,1.80
2019-05-12T09:41:54.766Z,1.70
2019-05-12T09:44:26.340Z,1.90
2019-05-12T09:46:53.501Z,2.00
2019-05-12T09:49:30.603Z,1.60
2019-05-12T09:51:54.308Z,1.70
2019-05-12T09:54:27.832Z,1.60
2019-05-12T09:56:58.129Z,1.90
2019-05-12T09:59:25.790Z,1.50
2019-05-12T10:01:54.148Z,1.30
2019-05-12T10:04:22.742Z,1.93
2019-05-12T10:06:53.338Z,1.47
2019-05-12T10:09:21.535Z,1.00
2019-05-12T10:11:51.879Z,1.00
2019-05-12T10:14:20.452Z,1.00
2019-05-12T10:16:49.832Z,1.20
2019-05-12T10:19:18.559Z,1.13
2019-05-12T10:21:49.160Z,1.17
2019-05-12T10:24:17.511Z,1.10
2019-05-12T10:26:49.436Z,0.93
2019-05-12T10:29:20.325Z,1.10
2019-05-12T10:31:46.492Z,1.00
2019-05-12T10:34:23.593Z,0.90
2019-05-12T10:36:53.746Z,1.03
2019-05-12T10:39:24.136Z,0.90
2019-05-12T10:41:54.635Z,0.90
2019-05-12T10:44:22.679Z,1.20
2019-05-12T10:46:53.806Z,1.10
2019-05-12T10:49:44.016Z,0.80
2019-05-12T10:52:13.857Z,0.77
2019-05-12T10:54:43.449Z,1.00
2019-05-12T10:57:14.138Z,0.90
2019-05-12T10:59:45.219Z,0.97
2019-05-12T11:02:13.972Z,0.90
2019-05-12T11:04:43.992Z,1.00
2019-05-12T11:07:13.549Z,0.60
2019-05-12T11:09:43.936Z,1.00
2019-05-12T11:12:13.797Z,0.90
2019-05-12T11:14:43.963Z,1.07
2019-05-12T11:17:13.825Z,1.10
2019-05-12T11:19:49.303Z,0.90
2019-05-12T11:22:13.977Z,0.83
2019-05-12T11:24:44.409Z,0.90
2019-05-12T11:27:13.450Z,0.70
2019-05-12T11:29:48.559Z,0.80
